Time;durP1;ratioP1;P1;durP2;ratioP2;P2;SDS_P1;SDS_P2;PMS_P1;PMS_P2;Temp;Humidity;BMP_temperature;BMP_pressure;BME280_temperature;BME280_humidity;BME280_pressure;Samples;Min_cycle;Max_cycle;Signal;HPM_P1;HPM_P2
2022/11/24 00:01:06;;;;;;;12.80;7.10;;;;;;;6.51;100.00;99525.88;5021222;28;20200;-73
2022/11/24 00:03:32;;;;;;;11.75;6.35;;;;;;;6.46;100.00;99531.44;5019093;28;20222;-72
2022/11/24 00:06:04;;;;;;;11.77;6.70;;;;;;;6.46;100.00;99526.09;5032621;28;20222;-73
2022/11/24 00:08:32;;;;;;;12.93;5.60;;;;;;;6.55;100.00;99536.38;5040663;28;20312;-72
2022/11/24 00:11:03;;;;;;;10.90;5.82;;;;;;;6.55;100.00;99536.38;5025909;28;20566;-74
2022/11/24 00:13:30;;;;;;;11.73;5.40;;;;;;;6.59;100.00;99539.81;5018804;28;20752;-73
2022/11/24 00:16:04;;;;;;;14.13;6.57;;;;;;;6.70;100.00;99534.88;5022907;28;20668;-74
2022/11/24 00:18:31;;;;;;;12.80;5.82;;;;;;;6.77;100.00;99528.31;5027450;28;20194;-71
2022/11/24 00:20:57;;;;;;;8.57;5.30;;;;;;;6.77;100.00;99532.81;5017437;28;20269;-72
2022/11/24 00:23:24;;;;;;;12.13;5.60;;;;;;;6.84;100.00;99534.28;5017679;28;20224;-74
2022/11/24 00:25:52;;;;;;;8.77;5.65;;;;;;;6.80;100.00;99533.53;5025543;28;20225;-73
2022/11/24 00:28:18;;;;;;;13.95;6.38;;;;;;;6.75;100.00;99532.84;5014276;28;20207;-72
2022/11/24 00:30:45;;;;;;;17.30;6.18;;;;;;;6.69;100.00;99525.09;5011264;28;20306;-73
2022/11/24 00:33:11;;;;;;;10.55;6.03;;;;;;;6.64;100.00;99524.44;5014140;28;20294;-72
2022/11/24 00:35:38;;;;;;;12.98;5.88;;;;;;;6.64;100.00;99537.81;5023115;28;20201;-73
2022/11/24 00:38:05;;;;;;;18.88;7.13;;;;;;;6.60;100.00;99536.19;5014869;28;20222;-73
2022/11/24 00:40:31;;;;;;;13.40;7.13;;;;;;;6.53;100.00;99542.75;5013486;28;20196;-75
2022/11/24 00:42:59;;;;;;;9.02;6.57;;;;;;;6.56;100.00;99546.16;5014668;28;20231;-74
2022/11/24 00:45:26;;;;;;;17.73;6.20;;;;;;;6.46;100.00;99548.34;5023974;28;20355;-73
2022/11/24 00:47:54;;;;;;;13.18;5.97;;;;;;;6.39;100.00;99556.69;5018828;28;20219;-73
2022/11/24 00:50:21;;;;;;;9.80;5.75;;;;;;;6.45;100.00;99573.38;5025679;28;20205;-73
2022/11/24 00:52:47;;;;;;;11.02;6.15;;;;;;;6.45;100.00;99559.13;5015850;28;20744;-73
2022/11/24 00:55:14;;;;;;;11.40;5.60;;;;;;;6.49;100.00;99566.09;5026027;28;20209;-74
2022/11/24 00:57:41;;;;;;;11.90;6.18;;;;;;;6.57;100.00;99565.75;5023071;28;20210;-73
2022/11/24 01:00:09;;;;;;;11.98;5.88;;;;;;;6.52;100.00;99573.97;5016208;28;20582;-72
2022/11/24 01:02:36;;;;;;;16.38;6.30;;;;;;;6.55;100.00;99572.97;5019006;28;20220;-72
2022/11/24 01:05:03;;;;;;;17.33;5.90;;;;;;;6.64;100.00;99585.97;5025281;28;20225;-73
2022/11/24 01:07:30;;;;;;;8.68;5.43;;;;;;;6.76;100.00;99588.13;5028121;28;20201;-75
2022/11/24 01:09:57;;;;;;;18.23;6.60;;;;;;;6.73;100.00;99593.59;5035575;28;20210;-74
2022/11/24 01:12:23;;;;;;;9.25;5.95;;;;;;;6.76;100.00;99592.59;5019958;28;20233;-74
2022/11/24 01:14:50;;;;;;;12.32;5.88;;;;;;;6.83;100.00;99589.59;5019433;28;20207;-75
2022/11/24 01:17:18;;;;;;;12.10;5.93;;;;;;;6.76;100.00;99589.91;5032922;28;20205;-73
2022/11/24 01:19:45;;;;;;;16.15;6.55;;;;;;;6.70;100.00;99595.56;5034734;28;20213;-74
2022/11/24 01:22:12;;;;;;;10.32;5.60;;;;;;;6.71;100.00;99595.47;5025705;28;20242;-73
2022/11/24 01:24:39;;;;;;;16.38;6.43;;;;;;;6.64;100.00;99604.69;5027612;28;20201;-74
2022/11/24 01:27:06;;;;;;;13.05;7.72;;;;;;;6.48;100.00;99607.13;5035085;28;20240;-74
2022/11/24 01:29:33;;;;;;;10.10;6.00;;;;;;;6.50;100.00;99609.75;5016632;28;20631;-74
2022/11/24 01:31:59;;;;;;;10.40;6.00;;;;;;;6.50;100.00;99607.09;5012163;28;20235;-75
2022/11/24 01:34:28;;;;;;;14.23;6.47;;;;;;;6.44;100.00;99609.09;5023138;28;20229;-74
2022/11/24 01:36:54;;;;;;;16.95;6.40;;;;;;;6.40;100.00;99606.56;5019499;28;20225;-73
2022/11/24 01:39:21;;;;;;;13.75;5.85;;;;;;;6.44;100.00;99611.75;5025631;28;20214;-73
2022/11/24 01:41:47;;;;;;;8.93;5.60;;;;;;;6.40;100.00;99610.13;5024139;28;20707;-74
2022/11/24 01:44:22;;;;;;;11.25;6.65;;;;;;;6.39;100.00;99604.84;5031547;28;20670;-72
2022/11/24 01:46:52;;;;;;;12.75;6.35;;;;;;;6.29;100.00;99608.81;5021878;28;20227;-74
2022/11/24 01:49:23;;;;;;;14.73;6.78;;;;;;;6.20;100.00;99610.94;5023652;28;20203;-74
2022/11/24 01:51:57;;;;;;;14.38;6.65;;;;;;;6.20;100.00;99623.44;5022383;28;20219;-73
2022/11/24 01:54:28;;;;;;;19.83;6.18;;;;;;;6.41;100.00;99624.38;5016438;28;20194;-73
2022/11/24 01:57:00;;;;;;;17.30;6.88;;;;;;;6.38;100.00;99621.84;5025701;28;20638;-74
2022/11/24 01:59:27;;;;;;;14.88;7.43;;;;;;;6.31;100.00;99623.88;5034083;28;20228;-73
2022/11/24 02:01:56;;;;;;;16.45;6.78;;;;;;;6.44;100.00;99634.94;5029180;28;20598;-73
2022/11/24 02:04:26;;;;;;;18.80;7.13;;;;;;;6.52;100.00;99630.16;5022203;28;20686;-74
2022/11/24 02:07:01;;;;;;;19.77;7.93;;;;;;;6.47;100.00;99630.34;5016295;28;20218;-73
2022/11/24 02:09:34;;;;;;;17.40;7.38;;;;;;;6.55;100.00;99632.69;5027188;28;20196;-74
2022/11/24 02:12:01;;;;;;;19.40;7.45;;;;;;;6.58;100.00;99631.69;5036389;28;20228;-74
2022/11/24 02:14:28;;;;;;;15.00;6.57;;;;;;;6.57;100.00;99635.31;5019995;28;20197;-74
2022/11/24 02:16:55;;;;;;;13.43;6.95;;;;;;;6.64;100.00;99637.66;5028153;28;20607;-73
2022/11/24 02:19:33;;;;;;;13.85;7.30;;;;;;;6.63;100.00;99635.94;5026045;28;20209;-72
2022/11/24 02:22:02;;;;;;;14.48;7.00;;;;;;;6.56;100.00;99629.09;5021481;28;20228;-74
2022/11/24 02:24:36;;;;;;;15.77;7.55;;;;;;;6.55;100.00;99635.38;5011305;28;20676;-73
2022/11/24 02:27:04;;;;;;;15.93;6.63;;;;;;;6.69;100.00;99629.44;5011636;28;20249;-72
2022/11/24 02:29:31;;;;;;;18.27;7.15;;;;;;;6.65;100.00;99642.09;5018670;28;20210;-71
2022/11/24 02:32:01;;;;;;;16.58;7.43;;;;;;;6.71;100.00;99630.25;5009638;28;20230;-74
2022/11/24 02:34:28;;;;;;;17.67;7.05;;;;;;;6.68;100.00;99633.94;5024550;28;20225;-74
2022/11/24 02:36:54;;;;;;;15.20;7.03;;;;;;;6.67;100.00;99637.56;5032020;28;20201;-73
2022/11/24 02:39:21;;;;;;;17.35;7.05;;;;;;;6.60;100.00;99624.47;5027287;28;20209;-73
2022/11/24 02:41:52;;;;;;;25.73;6.70;;;;;;;6.57;100.00;99632.66;5021581;28;20312;-72
2022/11/24 02:44:21;;;;;;;18.33;7.40;;;;;;;6.60;100.00;99627.16;5027519;28;20197;-72
2022/11/24 02:46:48;;;;;;;12.98;6.88;;;;;;;6.64;100.00;99623.41;5044481;28;20216;-73
2022/11/24 02:49:15;;;;;;;15.77;6.20;;;;;;;6.67;100.00;99620.59;5043696;28;20253;-71
2022/11/24 02:51:42;;;;;;;22.05;7.03;;;;;;;6.66;100.00;99626.91;5037064;28;20227;-72
2022/11/24 02:54:08;;;;;;;19.65;6.72;;;;;;;6.66;100.00;99618.88;5037246;28;20198;-73
2022/11/24 02:56:35;;;;;;;16.92;6.70;;;;;;;6.58;100.00;99616.53;5022501;28;20209;-72
2022/11/24 02:59:01;;;;;;;15.05;6.97;;;;;;;6.73;100.00;99631.06;5037416;28;20903;-72
2022/11/24 03:01:29;;;;;;;17.75;7.05;;;;;;;6.76;100.00;99630.97;5043758;28;20248;-72
2022/11/24 03:03:56;;;;;;;20.20;7.28;;;;;;;6.75;100.00;99637.22;5036724;28;20232;-72
2022/11/24 03:06:22;;;;;;;14.40;6.97;;;;;;;6.71;100.00;99643.63;5038863;28;20251;-73
2022/11/24 03:08:49;;;;;;;14.20;6.43;;;;;;;6.62;100.00;99642.22;5018953;28;20200;-72
2022/11/24 03:11:15;;;;;;;17.65;6.65;;;;;;;6.63;100.00;99643.97;5024990;28;20208;-73
2022/11/24 03:13:42;;;;;;;14.60;6.80;;;;;;;6.63;100.00;99635.06;5011408;28;20239;-74
2022/11/24 03:16:10;;;;;;;17.33;7.00;;;;;;;6.68;100.00;99630.41;5012156;28;20203;-70
2022/11/24 03:18:38;;;;;;;20.08;7.63;;;;;;;6.61;100.00;99642.28;5013148;28;20197;-74
2022/11/24 03:21:05;;;;;;;14.68;6.97;;;;;;;6.58;100.00;99643.28;5017884;28;20208;-74
2022/11/24 03:23:31;;;;;;;11.02;6.18;;;;;;;6.59;100.00;99650.38;5014931;28;20256;-74
2022/11/24 03:26:07;;;;;;;13.65;6.72;;;;;;;6.65;100.00;99657.28;5009227;28;20225;-72
2022/11/24 03:28:33;;;;;;;12.02;6.03;;;;;;;6.65;100.00;99650.13;5010630;28;20202;-75
2022/11/24 03:31:00;;;;;;;15.93;6.35;;;;;;;6.58;100.00;99642.41;5010926;28;20238;-75
2022/11/24 03:33:27;;;;;;;18.33;7.65;;;;;;;6.56;100.00;99652.31;5030176;28;20247;-73
2022/11/24 03:35:55;;;;;;;20.63;6.55;;;;;;;6.51;100.00;99646.25;5030399;28;20197;-73
2022/11/24 03:38:21;;;;;;;19.92;7.00;;;;;;;6.57;100.00;99646.03;5021570;28;20302;-75
2022/11/24 03:40:48;;;;;;;18.00;6.68;;;;;;;6.57;100.00;99640.66;5030997;28;20654;-73
2022/11/24 03:43:15;;;;;;;20.27;7.50;;;;;;;6.53;100.00;99650.59;5034643;28;20290;-73
2022/11/24 03:45:44;;;;;;;13.77;6.45;;;;;;;6.50;100.00;99642.72;5023014;28;20225;-74
2022/11/24 03:48:11;;;;;;;19.55;6.90;;;;;;;6.44;100.00;99641.19;5025860;28;20232;-73
2022/11/24 03:50:38;;;;;;;15.88;6.35;;;;;;;6.48;100.00;99631.22;5022502;28;20203;-73
2022/11/24 03:53:05;;;;;;;13.38;6.32;;;;;;;6.48;100.00;99633.88;5020691;28;20228;-73
2022/11/24 03:55:32;;;;;;;15.15;7.82;;;;;;;6.45;100.00;99642.91;5017717;28;20199;-74
2022/11/24 03:57:59;;;;;;;10.70;5.60;;;;;;;6.51;100.00;99654.28;5015084;28;20202;-73
2022/11/24 04:00:26;;;;;;;13.77;6.00;;;;;;;6.54;100.00;99652.38;5017263;28;20254;-73
2022/11/24 04:02:53;;;;;;;10.90;6.20;;;;;;;6.58;100.00;99664.69;5019221;28;20225;-74
2022/11/24 04:05:19;;;;;;;14.77;7.00;;;;;;;6.66;100.00;99673.25;5020871;28;20209;-74
2022/11/24 04:07:46;;;;;;;20.52;6.35;;;;;;;6.67;100.00;99663.41;5009238;28;20209;-76
2022/11/24 04:10:14;;;;;;;14.68;6.30;;;;;;;6.74;100.00;99672.06;5013867;28;20205;-75
2022/11/24 04:12:45;;;;;;;15.15;6.68;;;;;;;6.77;100.00;99672.81;5023440;28;20230;-74
2022/11/24 04:15:14;;;;;;;24.60;6.43;;;;;;;6.84;100.00;99671.63;5017044;28;20221;-74
2022/11/24 04:17:41;;;;;;;14.57;5.85;;;;;;;6.87;100.00;99679.56;5019627;28;20343;-75
2022/11/24 04:20:09;;;;;;;14.55;5.65;;;;;;;6.91;100.00;99684.75;5018357;28;20205;-73
2022/11/24 04:22:36;;;;;;;12.65;6.28;;;;;;;6.89;100.00;99680.34;5019092;28;20216;-76
2022/11/24 04:25:04;;;;;;;13.43;6.00;;;;;;;6.98;100.00;99683.56;5017399;28;20204;-73
2022/11/24 04:27:32;;;;;;;13.20;6.10;;;;;;;7.01;100.00;99697.72;5026401;28;20219;-74
2022/11/24 04:29:59;;;;;;;23.40;6.40;;;;;;;7.01;100.00;99695.03;5031620;28;20680;-74
2022/11/24 04:32:25;;;;;;;14.05;6.70;;;;;;;7.05;100.00;99695.75;5015923;28;20228;-74
2022/11/24 04:34:52;;;;;;;13.40;6.85;;;;;;;7.08;100.00;99696.50;5013244;28;20202;-72
2022/11/24 04:37:18;;;;;;;17.73;6.38;;;;;;;7.17;100.00;99705.06;5018883;28;20198;-74
2022/11/24 04:39:45;;;;;;;12.20;5.72;;;;;;;7.18;100.00;99705.00;5023953;28;20259;-75
2022/11/24 04:42:12;;;;;;;14.60;6.68;;;;;;;7.19;100.00;99698.75;5013347;28;20260;-74
2022/11/24 04:44:40;;;;;;;17.40;6.43;;;;;;;7.26;100.00;99704.72;5026499;28;20201;-73
2022/11/24 04:47:06;;;;;;;15.35;5.57;;;;;;;7.26;100.00;99704.72;5041777;28;20239;-74
2022/11/24 04:49:33;;;;;;;17.25;6.05;;;;;;;7.34;100.00;99701.69;5030170;28;20210;-74
2022/11/24 04:51:59;;;;;;;14.07;6.45;;;;;;;7.34;100.00;99701.69;5015886;28;20583;-75
2022/11/24 04:54:26;;;;;;;15.70;6.50;;;;;;;7.36;100.00;99706.03;5017653;28;20205;-73
2022/11/24 04:56:53;;;;;;;18.50;6.25;;;;;;;7.43;100.00;99712.88;5017743;28;20201;-76
2022/11/24 04:59:19;;;;;;;17.45;6.40;;;;;;;7.50;100.00;99708.13;5028323;28;20662;-74
2022/11/24 05:01:47;;;;;;;17.75;5.60;;;;;;;7.61;100.00;99710.31;5016510;28;20227;-76
2022/11/24 05:04:15;;;;;;;19.30;6.85;;;;;;;7.72;100.00;99711.59;5019474;28;20596;-72
2022/11/24 05:06:42;;;;;;;16.15;6.10;;;;;;;7.83;100.00;99719.16;5027364;28;20247;-74
2022/11/24 05:09:08;;;;;;;8.00;4.72;;;;;;;7.87;100.00;99726.13;5011731;28;20211;-74
2022/11/24 05:11:34;;;;;;;19.65;5.68;;;;;;;7.87;100.00;99722.59;5013619;28;20296;-74
2022/11/24 05:14:01;;;;;;;23.13;7.50;;;;;;;7.89;100.00;99726.03;5081563;22;20256;-75
2022/11/24 05:16:27;;;;;;;13.93;5.13;;;;;;;7.89;100.00;99726.03;5062976;28;20239;-75
2022/11/24 05:18:55;;;;;;;19.67;7.25;;;;;;;7.86;100.00;99732.41;5054972;28;20200;-75
2022/11/24 05:21:22;;;;;;;16.10;5.75;;;;;;;7.90;100.00;99741.19;5044916;28;20204;-75
2022/11/24 05:23:48;;;;;;;14.88;5.30;;;;;;;7.96;100.00;99748.06;5037598;28;20220;-76
2022/11/24 05:26:15;;;;;;;20.23;6.50;;;;;;;8.02;100.00;99746.00;5036605;28;20336;-76
2022/11/24 05:28:42;;;;;;;20.20;6.00;;;;;;;8.16;100.00;99750.72;5034867;28;20201;-76
2022/11/24 05:31:08;;;;;;;13.60;6.20;;;;;;;8.21;100.00;99753.19;5034451;28;20215;-76
2022/11/24 05:33:35;;;;;;;20.73;7.53;;;;;;;8.23;100.00;99756.69;5037422;28;20259;-75
2022/11/24 05:36:05;;;;;;;14.55;5.95;;;;;;;8.23;100.00;99756.69;5045881;28;20564;-76
2022/11/24 05:38:33;;;;;;;21.05;4.95;;;;;;;8.27;100.00;99760.97;5051235;28;20230;-75
2022/11/24 05:41:01;;;;;;;17.77;4.47;;;;;;;8.34;100.00;99759.75;5049004;28;20197;-75
2022/11/24 05:43:28;;;;;;;17.25;4.90;;;;;;;8.36;100.00;99768.59;5042831;28;20997;-74
2022/11/24 05:45:54;;;;;;;23.08;4.82;;;;;;;8.38;100.00;99764.03;5037585;28;20613;-76
2022/11/24 05:48:21;;;;;;;9.52;4.97;;;;;;;8.38;100.00;99768.53;5041656;28;21067;-75
2022/11/24 05:50:53;;;;;;;14.48;4.60;;;;;;;8.40;100.00;99775.59;5049354;28;20204;-76
2022/11/24 05:53:21;;;;;;;16.02;5.05;;;;;;;8.39;100.00;99781.00;5055757;28;20228;-76
2022/11/24 05:55:47;;;;;;;13.27;5.80;;;;;;;8.41;100.00;99777.34;5045402;28;20662;-76
2022/11/24 05:58:14;;;;;;;22.70;5.90;;;;;;;8.43;100.00;99780.81;5033610;28;20291;-78
2022/11/24 06:00:40;;;;;;;12.57;4.65;;;;;;;8.44;100.00;99777.19;5041923;28;20202;-78
2022/11/24 06:03:07;;;;;;;17.52;4.55;;;;;;;8.43;100.00;99788.88;5034773;28;20308;-77
2022/11/24 06:05:33;;;;;;;15.57;4.53;;;;;;;8.47;100.00;99777.06;5034001;28;20194;-74
2022/11/24 06:08:00;;;;;;;21.38;5.80;;;;;;;8.39;100.00;99783.66;5044514;28;20601;-77
2022/11/24 06:10:28;;;;;;;19.17;4.97;;;;;;;8.42;100.00;99787.13;5047455;28;20652;-76
2022/11/24 06:12:55;;;;;;;18.60;4.45;;;;;;;8.42;100.00;99784.44;5045175;28;20235;-75
2022/11/24 06:15:22;;;;;;;15.88;4.75;;;;;;;8.41;100.00;99788.09;5042565;28;20206;-76
2022/11/24 06:17:54;;;;;;;15.93;4.22;;;;;;;8.44;100.00;99787.94;5036670;28;20566;-74
2022/11/24 06:20:21;;;;;;;19.55;4.72;;;;;;;8.51;100.00;99785.84;5033119;28;20567;-77
2022/11/24 06:22:48;;;;;;;21.40;6.30;;;;;;;8.43;100.00;99793.38;5036491;28;20223;-75
2022/11/24 06:25:16;;;;;;;15.13;4.90;;;;;;;8.36;100.00;99790.06;5034610;28;20210;-77
2022/11/24 06:27:44;;;;;;;10.30;5.70;;;;;;;8.41;100.00;99798.81;5043992;28;20228;-74
2022/11/24 06:30:12;;;;;;;15.10;4.05;;;;;;;8.45;100.00;99799.53;5034182;28;20726;-76
2022/11/24 06:32:43;;;;;;;17.30;4.68;;;;;;;8.38;100.00;99798.91;5034052;28;20703;-75
2022/11/24 06:35:10;;;;;;;11.40;4.25;;;;;;;8.43;100.00;99802.28;5039161;28;20222;-76
2022/11/24 06:37:37;;;;;;;20.20;5.38;;;;;;;8.47;100.00;99803.03;5041547;28;20198;-76
2022/11/24 06:40:04;;;;;;;14.70;4.18;;;;;;;8.42;100.00;99811.28;5036698;28;20194;-77
2022/11/24 06:42:30;;;;;;;12.45;4.85;;;;;;;8.52;100.00;99811.72;5035839;28;20221;-78
2022/11/24 06:44:58;;;;;;;18.20;4.35;;;;;;;8.51;100.00;99818.91;5049996;28;20667;-75
2022/11/24 06:47:25;;;;;;;12.82;4.40;;;;;;;8.46;100.00;99806.66;5053933;28;20439;-75
2022/11/24 06:49:51;;;;;;;22.02;4.95;;;;;;;8.45;100.00;99807.59;5053938;28;20223;-75
2022/11/24 06:52:18;;;;;;;21.33;5.18;;;;;;;8.46;100.00;99806.66;5058644;28;20228;-75
2022/11/24 06:54:44;;;;;;;13.60;4.55;;;;;;;8.52;100.00;99822.47;5066161;28;20296;-75
2022/11/24 06:57:11;;;;;;;18.08;5.60;;;;;;;8.48;100.00;99816.38;5066117;28;20550;-76
2022/11/24 06:59:37;;;;;;;10.95;3.85;;;;;;;8.52;100.00;99819.78;5065245;28;20236;-74
2022/11/24 07:02:06;;;;;;;21.33;4.72;;;;;;;8.56;100.00;99822.25;5060761;28;20233;-75
2022/11/24 07:04:32;;;;;;;12.30;5.15;;;;;;;8.60;100.00;99824.81;5058232;28;20212;-76
2022/11/24 07:06:59;;;;;;;18.30;4.75;;;;;;;8.45;100.00;99821.88;5053461;28;20232;-75
2022/11/24 07:09:25;;;;;;;19.98;4.97;;;;;;;8.46;100.00;99825.44;5054394;28;20266;-76
2022/11/24 07:11:55;;;;;;;15.48;4.95;;;;;;;8.48;100.00;99821.75;5054121;28;20210;-75
2022/11/24 07:14:21;;;;;;;18.70;5.10;;;;;;;8.47;100.00;99825.34;5054185;28;20207;-76
2022/11/24 07:16:48;;;;;;;13.52;4.18;;;;;;;8.45;100.00;99829.91;5053659;28;20662;-74
2022/11/24 07:19:16;;;;;;;11.43;4.40;;;;;;;8.36;100.00;99836.53;5052756;28;20527;-74
2022/11/24 07:21:42;;;;;;;15.90;4.00;;;;;;;8.40;100.00;99833.72;5053631;28;20209;-75
2022/11/24 07:24:09;;;;;;;17.08;4.65;;;;;;;8.43;100.00;99839.84;5053556;28;20221;-74
2022/11/24 07:26:36;;;;;;;16.85;4.43;;;;;;;8.33;100.00;99838.50;5053671;28;20229;-77
2022/11/24 07:29:03;;;;;;;11.82;4.10;;;;;;;8.38;100.00;99843.66;5040615;28;20568;-74
2022/11/24 07:31:29;;;;;;;17.50;4.97;;;;;;;8.38;100.00;99847.22;5037682;28;20210;-74
2022/11/24 07:33:56;;;;;;;10.70;3.75;;;;;;;8.38;100.00;99847.22;5042518;28;20221;-75
2022/11/24 07:36:24;;;;;;;17.30;4.25;;;;;;;8.41;100.00;99851.59;5036491;28;20210;-74
2022/11/24 07:38:51;;;;;;;12.32;4.25;;;;;;;8.42;100.00;99853.34;5039228;28;20198;-74
2022/11/24 07:41:19;;;;;;;15.43;4.25;;;;;;;8.44;100.00;99856.84;5051192;28;20273;-74
2022/11/24 07:43:46;;;;;;;18.05;4.88;;;;;;;8.42;100.00;99864.09;5050574;28;20221;-75
2022/11/24 07:46:17;;;;;;;13.45;4.30;;;;;;;8.46;100.00;99863.00;5040178;28;20292;-73
2022/11/24 07:48:44;;;;;;;12.90;4.53;;;;;;;8.48;100.00;99866.47;5038428;28;20254;-76
2022/11/24 07:51:11;;;;;;;11.88;4.35;;;;;;;8.52;100.00;99863.59;5037477;28;20292;-75
2022/11/24 07:53:39;;;;;;;15.88;4.70;;;;;;;8.51;100.00;99871.72;5036248;28;20222;-75
2022/11/24 07:56:07;;;;;;;14.10;4.28;;;;;;;8.48;100.00;99867.38;5035504;28;20269;-74
2022/11/24 07:58:35;;;;;;;27.67;4.45;;;;;;;8.54;100.00;99875.13;5036576;28;20260;-75
2022/11/24 08:01:09;;;;;;;10.63;4.10;;;;;;;8.60;100.00;99876.66;5036055;28;20201;-75
2022/11/24 08:03:36;;;;;;;11.88;4.25;;;;;;;8.62;100.00;99890.03;5036672;28;20583;-74
2022/11/24 08:06:03;;;;;;;10.63;3.38;;;;;;;8.70;100.00;99898.59;5039958;28;20237;-74
2022/11/24 08:08:32;;;;;;;16.25;4.28;;;;;;;8.75;100.00;99892.06;5036332;28;20589;-76
2022/11/24 08:11:04;;;;;;;13.38;4.10;;;;;;;8.79;100.00;99892.78;5039937;28;20206;-74
2022/11/24 08:13:31;;;;;;;13.43;4.18;;;;;;;8.77;100.00;99900.03;5044192;28;20233;-75
2022/11/24 08:15:58;;;;;;;13.35;4.95;;;;;;;8.76;100.00;99903.69;5045021;28;20214;-75
2022/11/24 08:18:24;;;;;;;12.27;4.22;;;;;;;8.78;100.00;99912.53;5047279;28;20248;-75
2022/11/24 08:20:51;;;;;;;10.02;3.78;;;;;;;8.78;100.00;99912.53;5049214;28;20209;-75
2022/11/24 08:23:18;;;;;;;19.70;4.18;;;;;;;8.79;100.00;99919.63;5043154;28;20570;-76
2022/11/24 08:25:44;;;;;;;16.33;4.72;;;;;;;8.74;100.00;99916.31;5038131;28;20229;-75
2022/11/24 08:28:12;;;;;;;16.65;4.15;;;;;;;8.68;100.00;99916.56;5036160;28;20218;-74
2022/11/24 08:30:39;;;;;;;10.52;3.72;;;;;;;8.67;100.00;99912.16;5036484;28;20212;-74
2022/11/24 08:33:05;;;;;;;13.30;4.80;;;;;;;8.70;100.00;99922.75;5036488;28;20257;-75
2022/11/24 08:35:36;;;;;;;19.42;4.50;;;;;;;8.73;100.00;99928.88;5046169;28;20201;-73
2022/11/24 08:38:02;;;;;;;14.75;4.20;;;;;;;8.80;100.00;99928.59;5044213;28;20710;-75
2022/11/24 08:40:29;;;;;;;12.95;3.75;;;;;;;8.87;100.00;99938.97;5045302;28;20304;-75
2022/11/24 08:42:57;;;;;;;15.40;4.43;;;;;;;8.98;100.00;99938.47;5041207;28;20316;-74
2022/11/24 08:45:25;;;;;;;15.32;4.97;;;;;;;8.93;100.00;99940.50;5036472;28;20676;-75
2022/11/24 08:47:53;;;;;;;10.55;3.78;;;;;;;9.03;100.00;99940.97;5035094;28;20312;-74
2022/11/24 08:50:20;;;;;;;16.45;4.07;;;;;;;9.15;100.00;99940.38;5035401;28;20221;-75
2022/11/24 08:52:46;;;;;;;13.60;3.67;;;;;;;9.26;100.00;99951.50;5036276;28;20271;-75
2022/11/24 08:55:13;;;;;;;7.85;3.28;;;;;;;9.39;100.00;99951.78;5036279;28;20205;-75
2022/11/24 08:57:40;;;;;;;9.70;3.00;;;;;;;9.49;100.00;99946.84;5037295;28;20285;-74
2022/11/24 09:00:08;;;;;;;10.50;3.97;;;;;;;9.64;100.00;99938.03;5038774;28;20237;-74
2022/11/24 09:02:36;;;;;;;11.68;3.72;;;;;;;10.34;100.00;99922.00;5039264;28;20313;-76
2022/11/24 09:05:02;;;;;;;7.72;2.72;;;;;;;10.53;100.00;99940.75;5040663;28;20290;-75
2022/11/24 09:07:29;;;;;;;5.90;2.88;;;;;;;10.27;100.00;99947.47;5041674;28;20325;-76
2022/11/24 09:09:56;;;;;;;7.80;2.78;;;;;;;10.10;100.00;99949.19;5042847;28;20252;-75
2022/11/24 09:12:22;;;;;;;10.40;3.58;;;;;;;10.10;100.00;99951.88;5040846;28;20293;-75
2022/11/24 09:14:49;;;;;;;12.95;3.50;;;;;;;10.58;100.00;99957.53;5042766;28;20256;-75
2022/11/24 09:17:15;;;;;;;7.57;3.20;;;;;;;11.58;100.00;99946.72;5041274;28;20222;-75
2022/11/24 09:19:43;;;;;;;9.60;2.70;;;;;;;12.41;100.00;99945.47;5039499;28;20198;-74
2022/11/24 09:22:10;;;;;;;9.13;2.75;;;;;;;11.96;100.00;99940.97;5040417;28;20206;-75
2022/11/24 09:24:36;;;;;;;11.82;3.60;;;;;;;11.54;100.00;99947.84;5039435;28;20672;-76
2022/11/24 09:27:03;;;;;;;9.45;2.70;;;;;;;10.86;100.00;99956.97;5041385;28;20715;-75
2022/11/24 09:29:30;;;;;;;7.38;2.65;;;;;;;10.55;100.00;99963.94;5041167;28;20208;-75
2022/11/24 09:31:56;;;;;;;7.15;3.30;;;;;;;10.50;100.00;99971.41;5041042;28;20288;-75
2022/11/24 09:34:23;;;;;;;10.80;3.00;;;;;;;10.20;100.00;99969.31;5038404;28;20576;-74
2022/11/24 09:36:50;;;;;;;9.63;2.90;;;;;;;10.22;100.00;99977.28;5041896;28;20298;-74
2022/11/24 09:39:17;;;;;;;7.65;3.00;;;;;;;10.47;100.00;99982.34;5043121;28;20232;-75
2022/11/24 09:42:07;;;;;;;9.10;2.72;;;;;;;10.64;100.00;99981.44;5039644;28;20201;-75
2022/11/24 09:44:50;;;;;;;8.90;2.90;;;;;;;10.74;100.00;99980.03;5045074;28;20198;-75
2022/11/24 09:47:31;;;;;;;4.25;2.67;;;;;;;10.93;100.00;99979.91;5047594;28;20278;-74
2022/11/24 09:50:02;;;;;;;5.93;2.38;;;;;;;11.02;100.00;99981.25;5048860;28;20190;-74
2022/11/24 09:52:39;;;;;;;9.57;2.72;;;;;;;10.56;100.00;99986.34;5046542;28;20229;-75
2022/11/24 09:55:21;;;;;;;8.00;3.35;;;;;;;10.39;100.00;99995.31;5039245;28;20181;-75
2022/11/24 09:57:59;;;;;;;11.05;3.00;;;;;;;10.32;100.00;99997.44;5039126;28;20197;-73
2022/11/24 10:00:25;;;;;;;6.75;2.75;;;;;;;10.33;100.00;100003.69;5039497;28;20225;-76
2022/11/24 10:02:52;;;;;;;8.48;3.75;;;;;;;10.28;100.00;99995.81;5038951;28;20795;-74
2022/11/24 10:05:19;;;;;;;13.90;3.55;;;;;;;10.22;100.00;100002.41;5040906;28;20309;-74
2022/11/24 10:07:59;;;;;;;12.68;3.60;;;;;;;10.27;100.00;100001.31;5042067;28;20252;-75
2022/11/24 10:10:35;;;;;;;10.43;3.30;;;;;;;10.56;100.00;100006.09;5037755;28;20206;-75
2022/11/24 10:13:13;;;;;;;7.53;3.97;;;;;;;12.36;100.00;99995.31;5036834;28;20318;-75
2022/11/24 10:15:47;;;;;;;7.22;2.65;;;;;;;13.57;100.00;99985.16;5038579;28;20189;-74
2022/11/24 10:18:31;;;;;;;8.93;2.78;;;;;;;14.35;100.00;99989.97;5035369;28;20645;-75
2022/11/24 10:21:10;;;;;;;7.35;2.88;;;;;;;13.41;100.00;99990.69;5035762;28;20190;-75
2022/11/24 10:23:54;;;;;;;8.75;2.90;;;;;;;12.51;100.00;99991.72;5035716;28;20229;-76
2022/11/24 10:26:30;;;;;;;5.93;2.35;;;;;;;11.91;100.00;99999.72;5036111;28;20205;-75
2022/11/24 10:28:57;;;;;;;6.45;2.30;;;;;;;11.50;100.00;99997.50;5035318;28;20216;-75
2022/11/24 10:31:29;;;;;;;6.97;2.85;;;;;;;11.85;100.00;100000.94;5035049;28;20210;-75
2022/11/24 10:34:00;;;;;;;8.55;2.20;;;;;;;11.95;100.00;100001.31;5036129;28;20222;-75
2022/11/24 10:36:37;;;;;;;10.07;3.10;;;;;;;12.21;100.00;100000.66;5035698;28;20205;-74
2022/11/24 10:39:14;;;;;;;5.35;3.15;;;;;;;12.02;100.00;100008.09;5035743;28;20236;-76
2022/11/24 10:41:48;;;;;;;7.93;2.85;;;;;;;11.92;100.00;100014.94;5036225;28;20268;-76
2022/11/24 10:44:15;;;;;;;13.93;3.00;;;;;;;11.83;100.00;100009.09;5034868;28;20611;-75
2022/11/24 10:46:42;;;;;;;7.43;2.95;;;;;;;11.98;100.00;100017.31;5036525;28;20252;-76
2022/11/24 10:49:17;;;;;;;8.15;2.92;;;;;;;12.03;100.00;100009.81;5033768;28;20225;-78
2022/11/24 10:51:55;;;;;;;6.72;2.47;;;;;;;12.29;100.00;100009.16;5034861;28;20280;-74
2022/11/24 10:54:24;;;;;;;9.57;2.30;;;;;;;12.54;100.00;100004.16;5033151;28;20276;-76
2022/11/24 10:56:53;;;;;;;7.43;1.98;;;;;;;12.46;100.00;100004.63;5035086;28;20233;-75
2022/11/24 10:59:31;;;;;;;6.03;2.05;;;;;;;12.46;100.00;100007.31;5038388;28;20285;-74
2022/11/24 11:01:59;;;;;;;8.00;2.80;;;;;;;12.15;100.00;100010.97;5035717;28;20207;-75
2022/11/24 11:04:28;;;;;;;5.40;2.10;;;;;;;12.22;100.00;100028.53;5034954;28;20576;-74
2022/11/24 11:07:08;;;;;;;12.02;2.15;;;;;;;11.99;100.00;100013.66;5036545;28;20201;-76
2022/11/24 11:09:36;;;;;;;3.38;1.63;;;;;;;11.79;100.00;100010.22;5035044;28;20228;-75
2022/11/24 11:12:10;;;;;;;5.82;2.25;;;;;;;11.69;100.00;100011.72;5035511;28;20198;-75
2022/11/24 11:14:37;;;;;;;4.35;1.60;;;;;;;11.80;100.00;100028.19;5047283;23;20237;-74
2022/11/24 11:17:32;;;;;;;8.45;1.80;;;;;;;12.03;100.00;100023.31;5034795;28;20233;-74
2022/11/24 11:20:02;;;;;;;9.45;2.40;;;;;;;12.21;100.00;100019.56;5034834;28;20555;-73
2022/11/24 11:22:31;;;;;;;14.32;1.83;;;;;;;12.19;100.00;100021.47;5035608;28;20194;-76
2022/11/24 11:25:14;;;;;;;5.50;1.60;;;;;;;12.01;100.00;100033.34;5034469;28;20233;-75
2022/11/24 11:27:42;;;;;;;9.27;1.73;;;;;;;11.94;100.00;100031.94;5033436;28;20663;-74
2022/11/24 11:30:21;;;;;;;3.00;1.20;;;;;;;11.79;100.00;100030.94;5034178;28;20289;-74